Time;durP1;ratioP1;P1;durP2;ratioP2;P2;SDS_P1;SDS_P2;PMS_P1;PMS_P2;Temp;Humidity;BMP_temperature;BMP_pressure;BME280_temperature;BME280_humidity;BME280_pressure;Samples;Min_cycle;Max_cycle;Signal;HPM_P1;HPM_P2
2021/06/08 00:00:55;;;;;;;12.43;8.63;;;18.60;99.90;;;;;;5031846;28;20136;-67
2021/06/08 00:03:21;;;;;;;11.05;7.97;;;18.60;99.90;;;;;;5032267;28;20029;-67
2021/06/08 00:05:47;;;;;;;15.75;8.75;;;18.70;99.90;;;;;;5032180;28;20040;-67
2021/06/08 00:08:13;;;;;;;11.63;8.88;;;18.60;99.90;;;;;;5032421;28;20104;-67
2021/06/08 00:10:39;;;;;;;12.35;8.88;;;18.60;99.90;;;;;;5031796;28;20557;-67
2021/06/08 00:13:05;;;;;;;12.15;9.02;;;18.60;99.90;;;;;;5031048;28;20076;-67
2021/06/08 00:15:31;;;;;;;14.13;8.98;;;18.60;99.90;;;;;;5031891;28;20083;-67
2021/06/08 00:17:57;;;;;;;12.38;8.95;;;18.50;99.90;;;;;;5031817;28;20026;-67
2021/06/08 00:20:23;;;;;;;12.75;9.05;;;18.40;99.90;;;;;;5030756;28;20032;-67
2021/06/08 00:22:48;;;;;;;15.38;10.40;;;18.30;99.90;;;;;;5030734;28;20029;-67
2021/06/08 00:25:15;;;;;;;14.85;9.15;;;18.40;99.90;;;;;;5030967;28;20045;-67
2021/06/08 00:27:41;;;;;;;12.70;8.27;;;18.30;99.90;;;;;;5031787;28;20030;-67
2021/06/08 00:30:07;;;;;;;11.48;8.95;;;18.20;99.90;;;;;;5031699;28;20465;-67
2021/06/08 00:32:33;;;;;;;12.98;9.50;;;18.30;99.90;;;;;;5030502;28;20117;-67
2021/06/08 00:34:59;;;;;;;14.75;9.75;;;18.30;99.90;;;;;;5032000;28;20091;-67
2021/06/08 00:37:25;;;;;;;15.75;9.77;;;18.20;99.90;;;;;;5032049;28;20029;-67
2021/06/08 00:39:53;;;;;;;16.02;9.75;;;18.20;99.90;;;;;;5030306;28;20029;-67
2021/06/08 00:42:34;;;;;;;14.27;10.60;;;18.20;99.90;;;;;;5030726;28;20045;-66
2021/06/08 00:45:00;;;;;;;14.25;9.35;;;18.10;99.90;;;;;;5031556;28;20394;-67
2021/06/08 00:47:26;;;;;;;13.52;10.63;;;18.20;99.90;;;;;;5030612;28;20041;-67
2021/06/08 00:49:52;;;;;;;14.65;10.30;;;18.10;99.90;;;;;;5031694;28;20041;-67
2021/06/08 00:52:18;;;;;;;13.27;10.40;;;18.10;99.90;;;;;;5031632;28;20029;-67
2021/06/08 00:54:44;;;;;;;13.38;9.95;;;18.10;99.90;;;;;;5030351;28;20033;-67
2021/06/08 00:57:11;;;;;;;15.25;10.15;;;18.00;99.90;;;;;;5031604;28;20038;-67
2021/06/08 00:59:37;;;;;;;18.65;10.60;;;17.90;99.90;;;;;;5031561;28;20072;-67
2021/06/08 01:02:03;;;;;;;15.57;11.15;;;18.00;99.90;;;;;;5030341;28;20053;-65
2021/06/08 01:04:29;;;;;;;12.32;9.75;;;18.00;99.90;;;;;;5031851;28;20490;-67
2021/06/08 01:06:54;;;;;;;15.63;10.63;;;17.90;99.90;;;;;;5030192;28;20108;-67
2021/06/08 01:09:20;;;;;;;13.88;10.70;;;18.00;99.90;;;;;;5034901;28;20390;-67
2021/06/08 01:11:46;;;;;;;15.13;11.10;;;17.90;99.90;;;;;;5034766;28;20402;-67
2021/06/08 01:14:12;;;;;;;17.90;11.00;;;17.90;99.90;;;;;;5035428;28;20037;-67
2021/06/08 01:16:39;;;;;;;13.95;11.07;;;17.80;99.90;;;;;;5035104;28;20029;-67
2021/06/08 01:19:05;;;;;;;16.05;11.27;;;17.80;99.90;;;;;;5034874;28;20517;-67
2021/06/08 01:21:32;;;;;;;18.70;11.90;;;17.90;99.90;;;;;;5033708;28;20038;-67
2021/06/08 01:23:59;;;;;;;15.35;12.30;;;17.90;99.90;;;;;;5034628;28;20379;-67
2021/06/08 01:26:27;;;;;;;16.67;11.63;;;17.90;99.90;;;;;;5035055;28;20119;-67
2021/06/08 01:28:59;;;;;;;18.33;11.43;;;17.80;99.90;;;;;;5033209;28;20167;-67
2021/06/08 01:31:28;;;;;;;21.73;12.70;;;17.80;99.90;;;;;;5033558;28;20060;-67
2021/06/08 01:33:55;;;;;;;19.67;12.18;;;17.80;99.90;;;;;;5033528;28;20034;-67
2021/06/08 01:36:23;;;;;;;16.83;12.13;;;17.70;99.90;;;;;;5033421;28;20034;-67
2021/06/08 01:38:51;;;;;;;18.33;12.18;;;17.70;99.90;;;;;;5033410;28;20036;-67
2021/06/08 01:41:24;;;;;;;19.63;12.35;;;17.70;99.90;;;;;;5034555;28;20099;-67
2021/06/08 01:43:51;;;;;;;17.52;12.60;;;17.70;99.90;;;;;;5034305;28;20080;-65
2021/06/08 01:46:18;;;;;;;16.33;11.68;;;17.70;99.90;;;;;;5033222;28;20041;-65
2021/06/08 01:48:45;;;;;;;17.33;10.77;;;17.70;99.90;;;;;;5032844;28;20029;-65
2021/06/08 01:51:29;;;;;;;18.15;11.20;;;17.80;99.90;;;;;;5034591;28;20124;-66
2021/06/08 01:54:53;;;;;;;15.95;11.15;;;17.80;99.90;;;;;;5034327;28;20034;-66
2021/06/08 01:57:24;;;;;;;16.30;11.20;;;17.90;99.90;;;;;;5032456;28;20371;-66
2021/06/08 01:59:57;;;;;;;16.85;11.75;;;17.90;99.90;;;;;;5016875;28;20364;-66
2021/06/08 02:02:36;;;;;;;15.63;11.95;;;17.90;99.90;;;;;;5034249;28;20112;-66
2021/06/08 02:05:30;;;;;;;16.42;12.00;;;17.90;99.90;;;;;;5033110;28;20852;-66
2021/06/08 02:08:37;;;;;;;28.23;12.48;;;17.80;99.90;;;;;;5033607;28;20482;-65
2021/06/08 02:11:31;;;;;;;17.42;11.63;;;17.90;99.90;;;;;;5033866;28;20042;-66
2021/06/08 02:14:18;;;;;;;16.95;11.77;;;17.80;99.90;;;;;;5004672;28;20057;-66
2021/06/08 02:16:50;;;;;;;17.50;12.30;;;17.70;99.90;;;;;;5032430;28;20061;-66
2021/06/08 02:19:19;;;;;;;15.73;11.88;;;17.80;99.90;;;;;;5032100;28;20030;-66
2021/06/08 02:21:50;;;;;;;15.40;11.57;;;17.80;99.90;;;;;;5032285;28;20038;-66
2021/06/08 02:24:23;;;;;;;19.10;12.52;;;17.80;99.90;;;;;;5032865;28;20612;-66
2021/06/08 02:26:52;;;;;;;16.77;11.40;;;17.80;99.90;;;;;;5032415;28;20080;-66
2021/06/08 02:29:20;;;;;;;18.20;12.32;;;17.80;99.90;;;;;;5032163;28;20103;-66
2021/06/08 02:31:47;;;;;;;18.58;12.30;;;17.70;99.90;;;;;;5032466;28;20025;-66
2021/06/08 02:34:15;;;;;;;14.93;11.02;;;17.70;99.90;;;;;;5033500;28;20065;-66
2021/06/08 02:36:44;;;;;;;16.13;12.18;;;17.60;99.90;;;;;;5015744;28;20406;-66
2021/06/08 02:39:11;;;;;;;15.95;11.55;;;17.70;99.90;;;;;;5033248;28;20382;-66
2021/06/08 02:41:39;;;;;;;20.52;12.57;;;17.70;99.90;;;;;;5032143;28;20121;-66
2021/06/08 02:44:06;;;;;;;18.15;11.75;;;17.60;99.90;;;;;;5033402;28;20037;-66
2021/06/08 02:46:33;;;;;;;15.55;11.75;;;17.60;99.90;;;;;;5032074;28;20029;-66
2021/06/08 02:49:00;;;;;;;18.83;12.55;;;17.50;99.90;;;;;;5032855;28;20033;-66
2021/06/08 02:51:27;;;;;;;15.80;11.88;;;17.60;99.90;;;;;;5032122;28;20030;-67
2021/06/08 02:53:57;;;;;;;19.52;12.82;;;17.60;99.90;;;;;;5032866;28;20054;-66
2021/06/08 02:56:23;;;;;;;16.20;13.13;;;17.60;99.90;;;;;;5032076;28;20057;-66
2021/06/08 02:58:51;;;;;;;17.25;12.85;;;17.50;99.90;;;;;;5031808;28;20057;-66
2021/06/08 03:01:19;;;;;;;20.20;13.55;;;17.60;99.90;;;;;;5031776;28;20029;-66
2021/06/08 03:03:51;;;;;;;17.50;12.45;;;17.50;99.90;;;;;;5031521;28;20034;-66
2021/06/08 03:06:27;;;;;;;22.50;12.95;;;17.50;99.90;;;;;;5031940;28;20164;-67
2021/06/08 03:09:03;;;;;;;17.08;12.43;;;17.50;99.90;;;;;;5031500;28;20038;-66
2021/06/08 03:11:39;;;;;;;20.23;13.50;;;17.50;99.90;;;;;;5031627;28;20478;-65
2021/06/08 03:14:15;;;;;;;16.42;12.85;;;17.40;99.90;;;;;;5031471;28;20079;-66
2021/06/08 03:16:53;;;;;;;17.73;12.23;;;17.50;99.90;;;;;;5031534;28;20029;-66
2021/06/08 03:19:25;;;;;;;15.95;12.10;;;17.50;99.90;;;;;;5031524;28;20493;-66
2021/06/08 03:21:55;;;;;;;19.25;13.00;;;17.50;99.90;;;;;;5031297;28;20030;-66
2021/06/08 03:24:29;;;;;;;17.25;12.95;;;17.50;99.90;;;;;;5031462;28;20034;-66
2021/06/08 03:26:57;;;;;;;19.40;12.77;;;17.50;99.90;;;;;;5032709;28;20490;-66
2021/06/08 03:29:25;;;;;;;15.85;12.18;;;17.40;99.90;;;;;;5031060;28;20045;-66
2021/06/08 03:31:51;;;;;;;19.27;13.45;;;17.40;99.90;;;;;;5030634;28;20048;-66
2021/06/08 03:34:18;;;;;;;18.30;12.38;;;17.40;99.90;;;;;;5031216;28;20025;-66
2021/06/08 03:36:49;;;;;;;22.75;12.65;;;17.50;99.90;;;;;;5031612;28;20035;-66
2021/06/08 03:39:17;;;;;;;15.25;11.65;;;17.50;99.90;;;;;;5032415;28;20064;-66
2021/06/08 03:41:46;;;;;;;19.67;12.18;;;17.40;99.90;;;;;;5031220;28;20036;-66
2021/06/08 03:44:14;;;;;;;18.08;12.35;;;17.40;99.90;;;;;;5030899;28;20037;-66
2021/06/08 03:46:41;;;;;;;18.65;13.05;;;17.50;99.90;;;;;;5031140;28;20040;-66
2021/06/08 03:49:08;;;;;;;18.55;11.52;;;17.50;99.90;;;;;;5030874;28;20041;-66
2021/06/08 03:51:34;;;;;;;16.20;12.23;;;17.50;99.90;;;;;;5032361;28;20034;-66
2021/06/08 03:54:00;;;;;;;16.98;11.98;;;17.50;99.90;;;;;;5030995;28;20034;-66
2021/06/08 03:56:28;;;;;;;18.63;12.68;;;17.40;99.90;;;;;;5003465;28;20071;-66
2021/06/08 03:58:55;;;;;;;16.50;12.25;;;17.40;99.90;;;;;;5023546;28;20607;-66
2021/06/08 04:01:23;;;;;;;16.30;11.43;;;17.40;99.90;;;;;;5030038;28;20037;-65
2021/06/08 04:03:50;;;;;;;19.67;11.98;;;17.40;99.90;;;;;;5031096;28;20429;-65
2021/06/08 04:06:19;;;;;;;15.68;11.55;;;17.40;99.90;;;;;;5030596;28;20029;-66
2021/06/08 04:08:46;;;;;;;16.10;12.32;;;17.50;99.90;;;;;;5042804;28;20032;-65
2021/06/08 04:11:13;;;;;;;17.27;11.43;;;17.50;99.90;;;;;;5050494;28;20037;-66
2021/06/08 04:13:40;;;;;;;15.70;12.13;;;17.60;99.90;;;;;;5047783;28;20045;-66
2021/06/08 04:16:10;;;;;;;19.40;12.15;;;17.60;99.90;;;;;;5051504;28;20033;-66
2021/06/08 04:18:36;;;;;;;17.02;11.73;;;17.60;99.90;;;;;;5052020;28;20037;-66
2021/06/08 04:21:03;;;;;;;15.93;11.77;;;17.60;99.90;;;;;;5051884;28;20080;-65
2021/06/08 04:23:33;;;;;;;19.38;12.57;;;17.50;99.90;;;;;;5051818;28;20028;-64
2021/06/08 04:25:59;;;;;;;15.65;11.30;;;17.60;99.90;;;;;;5051893;28;20037;-65
2021/06/08 04:28:26;;;;;;;19.30;11.35;;;17.60;99.90;;;;;;5051680;28;20044;-65
2021/06/08 04:30:56;;;;;;;19.23;12.10;;;17.70;99.90;;;;;;5050590;28;20037;-66
2021/06/08 04:33:27;;;;;;;19.60;12.25;;;17.60;99.90;;;;;;5051839;28;20033;-64
2021/06/08 04:35:54;;;;;;;15.35;11.88;;;17.70;99.90;;;;;;5050695;28;20484;-68
2021/06/08 04:38:20;;;;;;;16.15;11.45;;;17.70;99.90;;;;;;5050887;28;20076;-72
2021/06/08 04:40:50;;;;;;;16.17;10.45;;;17.80;99.90;;;;;;5051931;28;20037;-69
2021/06/08 04:43:24;;;;;;;16.95;10.88;;;17.90;99.90;;;;;;5053683;28;20079;-71
2021/06/08 04:45:51;;;;;;;15.00;10.55;;;18.10;99.90;;;;;;5056099;28;20037;-68
2021/06/08 04:48:21;;;;;;;14.77;10.98;;;18.10;99.90;;;;;;5055262;28;20480;-68
2021/06/08 04:50:50;;;;;;;18.38;10.93;;;18.20;99.90;;;;;;5054388;28;20025;-68
2021/06/08 04:53:16;;;;;;;16.55;10.85;;;18.20;99.90;;;;;;5055086;28;20614;-70
2021/06/08 04:55:42;;;;;;;15.05;10.55;;;18.20;99.90;;;;;;5055557;28;20041;-68
2021/06/08 04:58:08;;;;;;;16.83;10.73;;;18.30;99.90;;;;;;5053917;28;20029;-67
2021/06/08 05:01:12;;;;;;;16.48;11.02;;;18.30;99.90;;;;;;5054006;28;20119;-70
2021/06/08 05:03:41;;;;;;;15.50;10.13;;;18.30;99.90;;;;;;5054771;28;20117;-70
2021/06/08 05:06:19;;;;;;;14.93;10.45;;;18.30;99.90;;;;;;5055205;28;20029;-69
2021/06/08 05:08:57;;;;;;;15.95;10.50;;;18.40;99.90;;;;;;5053911;28;20120;-71
2021/06/08 05:11:47;;;;;;;15.95;10.80;;;18.30;99.90;;;;;;5054860;28;20396;-71
2021/06/08 05:14:15;;;;;;;16.50;10.35;;;18.30;99.90;;;;;;5054188;28;20108;-70
2021/06/08 05:16:45;;;;;;;16.65;10.70;;;18.30;99.90;;;;;;5036297;28;20021;-71
2021/06/08 05:19:13;;;;;;;19.17;10.63;;;18.30;99.90;;;;;;5054423;28;20098;-70
2021/06/08 05:21:42;;;;;;;14.48;10.55;;;18.40;99.90;;;;;;5053015;28;20052;-68
2021/06/08 05:24:14;;;;;;;16.33;10.15;;;18.30;99.90;;;;;;5053161;28;20427;-69
2021/06/08 05:26:47;;;;;;;17.95;10.25;;;18.30;99.90;;;;;;5053283;28;20103;-70
2021/06/08 05:29:20;;;;;;;14.55;9.95;;;18.30;99.90;;;;;;5054046;28;20041;-70
2021/06/08 05:31:48;;;;;;;11.25;8.82;;;18.50;99.90;;;;;;5052940;28;20042;-70
2021/06/08 05:34:17;;;;;;;17.65;9.82;;;18.60;99.90;;;;;;5069584;28;20072;-70
2021/06/08 05:36:43;;;;;;;14.52;9.80;;;18.60;99.90;;;;;;5054294;28;20082;-70
2021/06/08 05:39:10;;;;;;;16.85;9.82;;;18.40;99.90;;;;;;5054206;28;20041;-70
2021/06/08 05:41:37;;;;;;;17.20;8.95;;;18.40;99.90;;;;;;5054685;28;20417;-70
2021/06/08 05:44:05;;;;;;;19.15;10.38;;;18.60;99.90;;;;;;5054257;28;20075;-70
2021/06/08 05:46:33;;;;;;;13.13;8.88;;;18.70;99.90;;;;;;5036313;28;20025;-70
2021/06/08 05:49:01;;;;;;;12.18;9.38;;;18.70;99.90;;;;;;5069229;28;20511;-69
2021/06/08 05:51:31;;;;;;;14.23;9.40;;;18.90;99.90;;;;;;5054011;28;20029;-68
2021/06/08 05:53:58;;;;;;;12.38;8.30;;;19.10;99.90;;;;;;5051775;28;20033;-69
2021/06/08 05:56:26;;;;;;;12.27;9.15;;;18.90;99.90;;;;;;5052561;28;20514;-69
2021/06/08 05:58:55;;;;;;;12.25;9.30;;;19.10;99.90;;;;;;5052628;28;20112;-68
2021/06/08 06:01:22;;;;;;;14.73;9.30;;;19.10;99.90;;;;;;5052040;28;20028;-69
2021/06/08 06:03:49;;;;;;;11.52;8.15;;;19.20;99.90;;;;;;5052306;28;20381;-68
2021/06/08 06:06:15;;;;;;;12.57;8.20;;;19.20;99.90;;;;;;5052797;28;20029;-68
2021/06/08 06:08:45;;;;;;;11.80;7.57;;;19.30;99.90;;;;;;5054021;28;20500;-69
2021/06/08 06:11:14;;;;;;;11.68;8.15;;;19.30;99.90;;;;;;5052311;28;20040;-69
2021/06/08 06:13:59;;;;;;;15.90;9.02;;;19.30;99.90;;;;;;5053728;28;20040;-68
2021/06/08 06:16:26;;;;;;;13.15;8.70;;;19.20;99.90;;;;;;5036511;28;20413;-67
2021/06/08 06:18:52;;;;;;;14.48;8.32;;;19.20;99.90;;;;;;5053690;28;20029;-71
2021/06/08 06:21:19;;;;;;;13.13;8.35;;;19.10;99.90;;;;;;5053320;28;20536;-71
2021/06/08 06:23:45;;;;;;;11.75;8.57;;;19.40;99.90;;;;;;5052494;28;20043;-72
2021/06/08 06:26:12;;;;;;;12.75;8.40;;;19.20;99.90;;;;;;5053321;28;20384;-72
2021/06/08 06:28:39;;;;;;;14.27;8.18;;;19.00;99.90;;;;;;5051811;28;20513;-71
2021/06/08 06:31:09;;;;;;;13.02;7.72;;;19.40;99.90;;;;;;5051944;28;20071;-71
2021/06/08 06:33:35;;;;;;;10.98;8.43;;;19.60;99.90;;;;;;5053514;28;20499;-75
2021/06/08 06:36:03;;;;;;;12.77;7.80;;;19.60;99.90;;;;;;5053374;28;20032;-68
2021/06/08 06:38:31;;;;;;;12.73;7.82;;;19.80;99.90;;;;;;5053532;28;20051;-72
2021/06/08 06:41:06;;;;;;;15.15;8.45;;;19.90;99.90;;;;;;5051748;28;20473;-73
2021/06/08 06:43:35;;;;;;;13.77;7.25;;;20.10;99.90;;;;;;5051895;28;20052;-73
2021/06/08 06:46:01;;;;;;;12.27;7.82;;;20.10;99.90;;;;;;5051510;28;20029;-69
2021/06/08 06:48:27;;;;;;;10.88;7.03;;;19.90;99.90;;;;;;5051599;28;20377;-78
2021/06/08 06:50:54;;;;;;;14.20;8.55;;;20.10;99.90;;;;;;5051677;28;20044;-69
2021/06/08 06:53:20;;;;;;;14.52;8.10;;;20.10;99.90;;;;;;5051440;28;20087;-69
2021/06/08 06:55:51;;;;;;;11.05;7.88;;;20.20;99.90;;;;;;5052643;28;20400;-68
2021/06/08 06:58:20;;;;;;;13.23;8.00;;;20.30;99.90;;;;;;5052846;28;20025;-66
2021/06/08 07:00:47;;;;;;;13.10;7.60;;;20.00;99.90;;;;;;5068060;28;20037;-69
2021/06/08 07:03:15;;;;;;;13.20;8.02;;;20.00;99.90;;;;;;5052816;28;20033;-68
2021/06/08 07:05:44;;;;;;;14.55;8.07;;;20.30;99.90;;;;;;5051522;28;20436;-68
2021/06/08 07:08:12;;;;;;;15.70;8.50;;;20.50;99.90;;;;;;5052531;28;20434;-68
2021/06/08 07:10:39;;;;;;;15.15;8.35;;;20.50;99.90;;;;;;5052477;28;20052;-68
2021/06/08 07:13:06;;;;;;;12.93;7.93;;;20.40;99.90;;;;;;5052433;28;20519;-69
2021/06/08 07:15:34;;;;;;;29.10;11.50;;;20.80;99.90;;;;;;5051514;28;20101;-69
2021/06/08 07:18:00;;;;;;;16.70;8.15;;;20.80;99.90;;;;;;5052303;28;20104;-69
2021/06/08 07:20:29;;;;;;;12.90;6.85;;;20.80;99.90;;;;;;5051327;28;20025;-69
2021/06/08 07:22:57;;;;;;;30.55;9.77;;;20.90;99.90;;;;;;5051116;28;20037;-69
2021/06/08 07:25:26;;;;;;;21.42;10.02;;;20.90;99.90;;;;;;5052207;28;20037;-69
2021/06/08 07:27:53;;;;;;;20.80;8.68;;;20.70;99.90;;;;;;5052240;28;20056;-69
2021/06/08 07:30:20;;;;;;;14.18;7.85;;;20.90;99.90;;;;;;5051885;28;20045;-69
2021/06/08 07:33:06;;;;;;;10.63;7.32;;;21.10;99.90;;;;;;5041470;28;20141;-69
2021/06/08 07:36:08;;;;;;;16.63;8.90;;;21.20;99.90;;;;;;5015386;28;20030;-68
2021/06/08 07:39:00;;;;;;;14.23;7.72;;;21.10;99.90;;;;;;5031361;28;20037;-69
2021/06/08 07:41:44;;;;;;;12.80;7.13;;;21.30;99.90;;;;;;5032180;28;20064;-69
2021/06/08 07:44:32;;;;;;;10.15;7.18;;;21.50;99.90;;;;;;5014734;28;20120;-69
2021/06/08 07:47:06;;;;;;;12.10;8.35;;;21.50;99.90;;;;;;5031194;28;20104;-69
2021/06/08 07:49:34;;;;;;;16.25;8.18;;;21.50;99.90;;;;;;5032170;28;20038;-69
2021/06/08 07:52:06;;;;;;;9.68;7.28;;;21.60;99.90;;;;;;5030957;28;20045;-68
2021/06/08 07:54:32;;;;;;;14.68;7.53;;;21.70;99.90;;;;;;5032586;28;20669;-68
2021/06/08 07:56:59;;;;;;;15.02;7.45;;;21.50;99.90;;;;;;5047969;28;20421;-69
2021/06/08 07:59:26;;;;;;;10.68;7.35;;;21.70;99.90;;;;;;5050433;28;20537;-68
2021/06/08 08:01:52;;;;;;;14.50;9.30;;;21.70;99.90;;;;;;5051844;28;20219;-68
2021/06/08 08:04:19;;;;;;;11.88;8.65;;;21.50;99.90;;;;;;5051505;28;20029;-68
2021/06/08 08:06:51;;;;;;;9.10;6.80;;;21.60;99.90;;;;;;5050389;28;20037;-69
2021/06/08 08:09:21;;;;;;;9.63;7.20;;;21.90;99.90;;;;;;5049274;28;20033;-68
2021/06/08 08:11:50;;;;;;;12.48;7.53;;;21.90;99.90;;;;;;5050024;28;20150;-68
2021/06/08 08:14:16;;;;;;;9.48;6.65;;;22.00;99.90;;;;;;5050395;28;20029;-68
2021/06/08 08:16:46;;;;;;;9.65;6.82;;;22.10;99.90;;;;;;5051372;28;20032;-69
2021/06/08 08:19:15;;;;;;;14.07;8.23;;;22.00;99.90;;;;;;5055934;28;20044;-68
2021/06/08 08:21:41;;;;;;;12.20;7.43;;;22.10;99.90;;;;;;5054812;28;20032;-68
2021/06/08 08:24:07;;;;;;;12.75;7.40;;;22.20;99.90;;;;;;5055600;28;20112;-68
2021/06/08 08:26:33;;;;;;;9.20;7.25;;;22.20;99.90;;;;;;5055983;28;20482;-68
2021/06/08 08:29:00;;;;;;;11.27;7.22;;;22.30;99.90;;;;;;5055480;28;20037;-68
2021/06/08 08:31:29;;;;;;;11.63;6.95;;;22.50;99.90;;;;;;5054281;28;20060;-68
2021/06/08 08:33:56;;;;;;;10.68;7.25;;;22.60;99.90;;;;;;5054225;28;20040;-68
2021/06/08 08:36:26;;;;;;;9.48;7.20;;;22.70;99.90;;;;;;5037663;28;20524;-68
2021/06/08 08:38:52;;;;;;;9.65;7.18;;;22.70;99.90;;;;;;5054386;28;20041;-68
2021/06/08 08:41:18;;;;;;;11.10;7.72;;;22.80;99.90;;;;;;5054140;28;20381;-68
2021/06/08 08:43:50;;;;;;;9.88;7.18;;;22.90;99.90;;;;;;5037694;28;20115;-68
2021/06/08 08:46:18;;;;;;;12.10;7.45;;;23.10;99.90;;;;;;5055447;28;20116;-68
2021/06/08 08:48:47;;;;;;;11.88;7.85;;;23.20;99.90;;;;;;5054279;28;20489;-68
2021/06/08 08:51:16;;;;;;;12.32;7.78;;;23.00;99.90;;;;;;5036610;28;20052;-68
2021/06/08 08:53:45;;;;;;;13.32;7.45;;;23.20;99.90;;;;;;5035241;28;20030;-69
2021/06/08 08:56:11;;;;;;;11.85;7.10;;;23.20;99.90;;;;;;5033962;28;20071;-68
2021/06/08 08:58:37;;;;;;;11.27;7.22;;;23.50;99.90;;;;;;5017335;28;20029;-69
2021/06/08 09:01:03;;;;;;;10.77;7.07;;;23.50;99.90;;;;;;5035296;28;20091;-68
2021/06/08 09:03:29;;;;;;;14.15;10.13;;;23.50;99.90;;;;;;5033676;28;20580;-69
2021/06/08 09:05:58;;;;;;;9.82;7.35;;;23.50;99.90;;;;;;5033842;28;20390;-69
2021/06/08 09:08:24;;;;;;;8.57;6.80;;;23.80;99.90;;;;;;5034605;28;20028;-69
2021/06/08 09:10:51;;;;;;;11.32;7.20;;;23.90;99.90;;;;;;5033494;28;20033;-69
2021/06/08 09:13:17;;;;;;;9.50;6.80;;;24.00;99.90;;;;;;5033009;28;20441;-69
2021/06/08 09:15:44;;;;;;;8.57;7.07;;;24.00;99.90;;;;;;5033422;28;20108;-69
2021/06/08 09:18:10;;;;;;;20.45;7.15;;;24.20;99.90;;;;;;5035038;28;20026;-69
2021/06/08 09:20:37;;;;;;;8.85;6.43;;;24.00;99.90;;;;;;5034850;28;20025;-69
2021/06/08 09:23:09;;;;;;;10.10;6.95;;;24.10;99.90;;;;;;5034540;28;20394;-68
2021/06/08 09:25:37;;;;;;;10.13;7.78;;;24.00;99.90;;;;;;5033296;28;20108;-68
2021/06/08 09:28:31;;;;;;;11.10;8.20;;;24.10;99.90;;;;;;5033283;28;20486;-68
2021/06/08 09:31:15;;;;;;;13.25;8.07;;;24.00;99.90;;;;;;5034409;28;20099;-69
2021/06/08 09:33:54;;;;;;;10.35;7.50;;;24.10;99.90;;;;;;5034480;28;20552;-69
2021/06/08 09:36:24;;;;;;;10.55;7.18;;;24.40;99.90;;;;;;5034149;28;20069;-68
2021/06/08 09:38:56;;;;;;;9.25;6.90;;;24.50;99.90;;;;;;5033413;28;20056;-69
2021/06/08 09:41:49;;;;;;;10.43;7.05;;;24.60;99.90;;;;;;5034137;28;20425;-68
2021/06/08 09:44:19;;;;;;;14.63;7.78;;;24.40;99.90;;;;;;5018073;28;20026;-68
2021/06/08 09:46:56;;;;;;;10.45;7.35;;;24.10;99.90;;;;;;5034238;28;20553;-71
2021/06/08 09:49:31;;;;;;;10.88;7.97;;;24.30;99.90;;;;;;5035077;28;20041;-69
2021/06/08 09:52:10;;;;;;;12.43;7.30;;;24.40;99.90;;;;;;5034012;28;20033;-70
2021/06/08 09:54:43;;;;;;;13.75;7.45;;;24.50;99.90;;;;;;5033901;28;20564;-71
2021/06/08 09:57:28;;;;;;;11.95;7.90;;;24.40;99.90;;;;;;5034173;28;20384;-72
2021/06/08 10:00:07;;;;;;;11.82;7.68;;;24.40;99.90;;;;;;5034000;28;20046;-69
2021/06/08 10:02:47;;;;;;;9.77;7.78;;;24.20;99.90;;;;;;5034030;28;20038;-73
2021/06/08 10:05:19;;;;;;;10.73;7.40;;;24.30;99.90;;;;;;5049123;28;20044;-73
2021/06/08 10:07:47;;;;;;;11.07;9.00;;;24.30;99.90;;;;;;5034137;28;20079;-73
2021/06/08 10:10:16;;;;;;;10.07;7.47;;;24.20;99.90;;;;;;5033796;28;20033;-73
2021/06/08 10:13:01;;;;;;;10.52;7.85;;;24.40;99.90;;;;;;5032330;28;20049;-72
2021/06/08 10:15:35;;;;;;;11.50;7.75;;;24.40;99.90;;;;;;5015651;28;20053;-73
2021/06/08 10:18:11;;;;;;;10.98;7.57;;;24.40;99.90;;;;;;5033774;28;20040;-75
2021/06/08 10:20:40;;;;;;;13.73;8.23;;;24.20;99.90;;;;;;5032082;28;20029;-75
2021/06/08 10:23:30;;;;;;;12.48;8.15;;;24.10;99.90;;;;;;5033940;28;20036;-73
2021/06/08 10:26:09;;;;;;;12.57;9.30;;;24.00;99.90;;;;;;5032606;28;20311;-75
2021/06/08 10:28:35;;;;;;;10.73;7.82;;;24.00;99.90;;;;;;5033320;28;20077;-74
2021/06/08 10:31:02;;;;;;;11.20;7.97;;;24.30;99.90;;;;;;5033556;28;20068;-74
2021/06/08 10:33:28;;;;;;;11.35;7.85;;;24.20;99.90;;;;;;5033188;28;20036;-75
2021/06/08 10:35:55;;;;;;;12.30;8.32;;;24.30;99.90;;;;;;5033175;28;20037;-75
2021/06/08 10:38:22;;;;;;;10.70;8.27;;;24.20;99.90;;;;;;5032341;28;20030;-74
2021/06/08 10:40:53;;;;;;;12.23;7.60;;;24.10;99.90;;;;;;5031943;28;20359;-74
2021/06/08 10:43:27;;;;;;;10.50;7.75;;;24.40;99.90;;;;;;5032154;28;20029;-75
2021/06/08 10:45:55;;;;;;;11.85;7.85;;;24.50;99.90;;;;;;5032134;28;20037;-74
2021/06/08 10:48:39;;;;;;;12.48;7.53;;;24.60;99.90;;;;;;5031709;28;20033;-74
2021/06/08 10:51:20;;;;;;;11.63;8.35;;;24.60;99.90;;;;;;5031546;28;20025;-74
2021/06/08 10:53:53;;;;;;;13.43;8.27;;;24.40;99.90;;;;;;5032462;28;20037;-74
2021/06/08 10:56:21;;;;;;;11.05;8.00;;;24.60;99.90;;;;;;5031464;28;20412;-74
2021/06/08 10:58:53;;;;;;;12.93;10.15;;;24.90;99.90;;;;;;5032413;28;20030;-70
2021/06/08 11:01:35;;;;;;;10.88;7.88;;;24.80;99.90;;;;;;5031920;28;20033;-73
2021/06/08 11:04:06;;;;;;;13.20;8.10;;;24.90;99.90;;;;;;5031396;28;20486;-74
2021/06/08 11:06:38;;;;;;;12.23;8.48;;;24.80;99.90;;;;;;5031637;28;20037;-75
2021/06/08 11:09:15;;;;;;;11.40;8.98;;;24.90;99.90;;;;;;5032823;28;20034;-74
2021/06/08 11:11:56;;;;;;;11.52;9.05;;;24.10;99.90;;;;;;5031144;28;20079;-74
2021/06/08 11:14:32;;;;;;;11.38;8.50;;;24.40;99.90;;;;;;5032808;28;20037;-74
2021/06/08 11:17:26;;;;;;;9.45;7.82;;;24.70;99.90;;;;;;5032649;28;20120;-74
2021/06/08 11:20:17;;;;;;;10.40;7.60;;;25.00;99.90;;;;;;5031409;28;20408;-74
2021/06/08 11:22:50;;;;;;;11.40;8.05;;;25.10;99.90;;;;;;5031156;28;20033;-75
2021/06/08 11:25:43;;;;;;;10.63;7.55;;;25.10;99.90;;;;;;5032479;28;20508;-74
2021/06/08 11:28:15;;;;;;;14.18;8.13;;;24.90;99.90;;;;;;5032453;28;20040;-74
2021/06/08 11:30:54;;;;;;;11.48;7.90;;;24.20;99.90;;;;;;5030803;28;20069;-74
2021/06/08 11:33:46;;;;;;;12.13;7.07;;;24.40;99.90;;;;;;5032328;28;20037;-74
2021/06/08 11:36:22;;;;;;;10.35;7.43;;;24.60;99.90;;;;;;5032360;28;20025;-74
2021/06/08 11:38:50;;;;;;;10.15;7.53;;;24.60;99.90;;;;;;5032356;28;20034;-74
2021/06/08 11:41:18;;;;;;;13.15;7.60;;;24.40;99.90;;;;;;5031147;28;20574;-74
2021/06/08 11:44:01;;;;;;;10.40;6.60;;;24.60;99.90;;;;;;5030703;28;20026;-74
2021/06/08 11:46:55;;;;;;;12.23;7.20;;;24.80;99.90;;;;;;5030567;28;20036;-74
2021/06/08 11:49:23;;;;;;;12.95;8.52;;;24.90;99.90;;;;;;5033564;28;20044;-74
2021/06/08 11:52:13;;;;;;;12.93;8.05;;;25.00;99.90;;;;;;5066822;28;20068;-74
2021/06/08 11:54:48;;;;;;;10.38;7.93;;;24.70;99.90;;;;;;5052265;28;20366;-73
2021/06/08 11:57:34;;;;;;;10.55;8.52;;;24.80;99.90;;;;;;5051831;28;20029;-73
2021/06/08 12:00:00;;;;;;;11.40;7.72;;;25.00;99.90;;;;;;5050762;28;20029;-73
2021/06/08 12:02:45;;;;;;;13.43;8.02;;;25.10;99.90;;;;;;5052058;28;20064;-74
2021/06/08 12:05:21;;;;;;;11.13;8.20;;;25.40;99.90;;;;;;5051594;28;20112;-74
2021/06/08 12:07:58;;;;;;;10.50;7.90;;;25.40;99.90;;;;;;5051880;28;20493;-74
2021/06/08 12:10:30;;;;;;;11.40;8.68;;;24.80;99.90;;;;;;5067031;28;20044;-74
2021/06/08 12:12:56;;;;;;;11.30;8.15;;;25.20;99.90;;;;;;5051779;28;20107;-74
2021/06/08 12:15:38;;;;;;;11.20;8.02;;;25.20;99.90;;;;;;5050695;28;20480;-74
2021/06/08 12:18:09;;;;;;;13.23;10.13;;;25.20;99.90;;;;;;5067145;28;20029;-74
2021/06/08 12:20:40;;;;;;;12.45;8.30;;;25.40;99.90;;;;;;5050161;28;20025;-74
2021/06/08 12:23:07;;;;;;;12.55;7.53;;;25.20;99.90;;;;;;5051866;28;20477;-74
2021/06/08 12:25:34;;;;;;;8.85;6.47;;;25.60;99.90;;;;;;5051809;28;20078;-73
2021/06/08 12:28:01;;;;;;;9.15;7.38;;;26.10;99.90;;;;;;5051565;28;20637;-74
2021/06/08 12:30:32;;;;;;;9.00;7.55;;;26.60;99.90;;;;;;5051345;28;20041;-73
2021/06/08 12:33:04;;;;;;;11.27;8.10;;;26.70;99.90;;;;;;5051591;28;20029;-74
2021/06/08 12:35:39;;;;;;;12.25;8.05;;;26.10;99.90;;;;;;5050641;28;20377;-74
2021/06/08 12:38:22;;;;;;;11.05;7.85;;;26.00;99.90;;;;;;5050631;28;20033;-73
2021/06/08 12:41:04;;;;;;;11.90;8.88;;;26.20;99.90;;;;;;5051362;28;20079;-73
2021/06/08 12:43:50;;;;;;;11.57;7.80;;;26.20;99.90;;;;;;5051650;28;20505;-73
2021/06/08 12:46:39;;;;;;;13.55;8.27;;;26.60;99.90;;;;;;5051566;28;20029;-75
2021/06/08 12:49:18;;;;;;;10.40;8.10;;;26.50;99.90;;;;;;5051559;28;20397;-73
2021/06/08 12:51:56;;;;;;;10.48;7.88;;;26.30;99.90;;;;;;5051371;28;20345;-73
2021/06/08 12:54:40;;;;;;;11.77;8.18;;;26.40;99.90;;;;;;5051352;28;20149;-73